DHL122 OERK-OEDF
Flight info
| Callsign | DHL122 |
|---|---|
| Flight time | 0h 38m |
| Altitude | 25000 |
| Route | ALTAV1E ALTAV H976 MUSRI L604 UMENA UMENA2J |
| Aircraft | A333/H-SDE3GHIJ2J3J5M1RVWXY/LB2D1 |
Departure
| Time | 2026-04-23 11:31 |
|---|---|
| Airport | King Khalid International Airport (OERK) |
Arrival
| Time | 2026-04-23 12:10 |
|---|---|
| Airport | King Fahd International Airport (OEDF) |
| Time | Latitude | Longitude | Altitude | Speed | Heading |
|---|---|---|---|---|---|
| 2026-04-23 10:05 | 24.97690 | 46.69430 | 2031 ft | 0 kts | 239° |
| 2026-04-23 11:05 | 24.97695 | 46.69440 | 2041 ft | 4 kts | 241° |
| 2026-04-23 11:05 | 24.97707 | 46.69467 | 2041 ft | 4 kts | 248° |
| 2026-04-23 11:05 | 24.97713 | 46.69483 | 2041 ft | 1 kts | 252° |
| 2026-04-23 11:07 | 24.97713 | 46.69482 | 2041 ft | 0 kts | 252° |
| 2026-04-23 11:08 | 24.97712 | 46.69481 | 2041 ft | 0 kts | 247° |
| 2026-04-23 11:08 | 24.97711 | 46.69480 | 2041 ft | 0 kts | 239° |
| 2026-04-23 11:08 | 24.97699 | 46.69470 | 2041 ft | 0 kts | 221° |
| 2026-04-23 11:08 | 24.97698 | 46.69470 | 2041 ft | 0 kts | 215° |
| 2026-04-23 11:09 | 24.97696 | 46.69469 | 2039 ft | 0 kts | 203° |
| 2026-04-23 11:09 | 24.97691 | 46.69471 | 2040 ft | 1 kts | 176° |
| 2026-04-23 11:09 | 24.97687 | 46.69478 | 2038 ft | 1 kts | 135° |
| 2026-04-23 11:09 | 24.97687 | 46.69491 | 2041 ft | 6 kts | 91° |
| 2026-04-23 11:10 | 24.97685 | 46.69529 | 2038 ft | 0 kts | 97° |
| 2026-04-23 11:10 | 24.97684 | 46.69530 | 2038 ft | 0 kts | 105° |
| 2026-04-23 11:10 | 24.97683 | 46.69531 | 2038 ft | 0 kts | 110° |
| 2026-04-23 11:10 | 24.97682 | 46.69531 | 2039 ft | 0 kts | 115° |
| 2026-04-23 11:11 | 24.97682 | 46.69532 | 2039 ft | 0 kts | 117° |
| 2026-04-23 11:19 | 24.97678 | 46.69540 | 2039 ft | 3 kts | 118° |
| 2026-04-23 11:19 | 24.97662 | 46.69565 | 2036 ft | 5 kts | 132° |
| 2026-04-23 11:19 | 24.97624 | 46.69599 | 2040 ft | 8 kts | 146° |
| 2026-04-23 11:20 | 24.97564 | 46.69638 | 2041 ft | 12 kts | 151° |
| 2026-04-23 11:20 | 24.97486 | 46.69687 | 2035 ft | 14 kts | 148° |
| 2026-04-23 11:20 | 24.97446 | 46.69776 | 2036 ft | 14 kts | 87° |
| 2026-04-23 11:20 | 24.97488 | 46.69869 | 2040 ft | 14 kts | 55° |
| 2026-04-23 11:21 | 24.97496 | 46.69967 | 2036 ft | 14 kts | 129° |
| 2026-04-23 11:21 | 24.97414 | 46.70031 | 2042 ft | 16 kts | 148° |
| 2026-04-23 11:21 | 24.97314 | 46.70095 | 2039 ft | 18 kts | 150° |
| 2026-04-23 11:21 | 24.97199 | 46.70168 | 2042 ft | 20 kts | 150° |
| 2026-04-23 11:22 | 24.97071 | 46.70248 | 2042 ft | 22 kts | 149° |
| 2026-04-23 11:22 | 24.96933 | 46.70334 | 2041 ft | 23 kts | 151° |
| 2026-04-23 11:22 | 24.96788 | 46.70427 | 2043 ft | 25 kts | 149° |
| 2026-04-23 11:22 | 24.96636 | 46.70526 | 2041 ft | 26 kts | 150° |
| 2026-04-23 11:23 | 24.96474 | 46.70626 | 2041 ft | 27 kts | 152° |
| 2026-04-23 11:23 | 24.96306 | 46.70729 | 2041 ft | 28 kts | 149° |
| 2026-04-23 11:23 | 24.96135 | 46.70841 | 2042 ft | 29 kts | 150° |
| 2026-04-23 11:23 | 24.95958 | 46.70951 | 2041 ft | 30 kts | 150° |
| 2026-04-23 11:24 | 24.95781 | 46.71066 | 2043 ft | 30 kts | 150° |
| 2026-04-23 11:24 | 24.95598 | 46.71180 | 2040 ft | 30 kts | 150° |
| 2026-04-23 11:24 | 24.95413 | 46.71296 | 2043 ft | 31 kts | 149° |
| 2026-04-23 11:24 | 24.95226 | 46.71414 | 2043 ft | 31 kts | 150° |
| 2026-04-23 11:25 | 24.95037 | 46.71534 | 2045 ft | 32 kts | 150° |
| 2026-04-23 11:25 | 24.94844 | 46.71656 | 2042 ft | 32 kts | 149° |
| 2026-04-23 11:25 | 24.94650 | 46.71779 | 2043 ft | 32 kts | 151° |
| 2026-04-23 11:25 | 24.94453 | 46.71902 | 2042 ft | 32 kts | 150° |
| 2026-04-23 11:26 | 24.94320 | 46.71994 | 2041 ft | 13 kts | 133° |
| 2026-04-23 11:26 | 24.94318 | 46.72086 | 2043 ft | 12 kts | 65° |
| 2026-04-23 11:26 | 24.94323 | 46.72097 | 2044 ft | 0 kts | 63° |
| 2026-04-23 11:29 | 24.94323 | 46.72098 | 2044 ft | 0 kts | 63° |
| 2026-04-23 11:29 | 24.94328 | 46.72109 | 2044 ft | 3 kts | 63° |
| 2026-04-23 11:30 | 24.94349 | 46.72151 | 2046 ft | 10 kts | 60° |
| 2026-04-23 11:30 | 24.94400 | 46.72228 | 2046 ft | 15 kts | 38° |
| 2026-04-23 11:30 | 24.94507 | 46.72211 | 2044 ft | 18 kts | 329° |
| 2026-04-23 11:30 | 24.94682 | 46.72101 | 2044 ft | 53 kts | 330° |
| 2026-04-23 11:31 | 24.95231 | 46.71755 | 2043 ft | 130 kts | 330° |
| 2026-04-23 11:31 | 24.96230 | 46.71107 | 2165 ft | 196 kts | 334° |
| 2026-04-23 11:31 | 24.97531 | 46.70277 | 2639 ft | 235 kts | 335° |
| 2026-04-23 11:31 | 24.99101 | 46.69362 | 3175 ft | 271 kts | 338° |
| 2026-04-23 11:32 | 25.00852 | 46.68444 | 3734 ft | 286 kts | 340° |
| 2026-04-23 11:32 | 25.02749 | 46.67686 | 4494 ft | 291 kts | 346° |
| 2026-04-23 11:32 | 25.04730 | 46.67066 | 5260 ft | 300 kts | 344° |
| 2026-04-23 11:32 | 25.06723 | 46.66411 | 6143 ft | 301 kts | 341° |
| 2026-04-23 11:33 | 25.08722 | 46.65720 | 7055 ft | 301 kts | 342° |
| 2026-04-23 11:33 | 25.10824 | 46.65622 | 7655 ft | 307 kts | 11° |
| 2026-04-23 11:33 | 25.12856 | 46.66371 | 8191 ft | 309 kts | 20° |
| 2026-04-23 11:33 | 25.14859 | 46.67265 | 8758 ft | 312 kts | 19° |
| 2026-04-23 11:34 | 25.16902 | 46.68141 | 9343 ft | 315 kts | 17° |
| 2026-04-23 11:34 | 25.18981 | 46.68728 | 9909 ft | 310 kts | 358° |
| 2026-04-23 11:34 | 25.21107 | 46.68476 | 10445 ft | 311 kts | 340° |
| 2026-04-23 11:34 | 25.23240 | 46.67851 | 10996 ft | 323 kts | 337° |
| 2026-04-23 11:35 | 25.25447 | 46.67138 | 11564 ft | 337 kts | 337° |
| 2026-04-23 11:35 | 25.27752 | 46.66417 | 12127 ft | 351 kts | 341° |
| 2026-04-23 11:35 | 25.30242 | 46.66171 | 12688 ft | 370 kts | 359° |
| 2026-04-23 11:35 | 25.32734 | 46.66945 | 13271 ft | 386 kts | 23° |
| 2026-04-23 11:36 | 25.34876 | 46.68769 | 13858 ft | 397 kts | 46° |
| 2026-04-23 11:36 | 25.36349 | 46.70933 | 14322 ft | 402 kts | 54° |
| 2026-04-23 11:36 | 25.37896 | 46.73535 | 14861 ft | 406 kts | 56° |
| 2026-04-23 11:36 | 25.39484 | 46.76135 | 15417 ft | 409 kts | 52° |
| 2026-04-23 11:37 | 25.41206 | 46.78654 | 15966 ft | 411 kts | 50° |
| 2026-04-23 11:37 | 25.42972 | 46.81151 | 16525 ft | 414 kts | 49° |
| 2026-04-23 11:37 | 25.44771 | 46.83674 | 17102 ft | 418 kts | 49° |
| 2026-04-23 11:37 | 25.46581 | 46.86209 | 17701 ft | 421 kts | 49° |
| 2026-04-23 11:38 | 25.48404 | 46.88762 | 18290 ft | 425 kts | 49° |
| 2026-04-23 11:38 | 25.50250 | 46.91347 | 18747 ft | 429 kts | 49° |
| 2026-04-23 11:38 | 25.52076 | 46.93906 | 18970 ft | 431 kts | 49° |
| 2026-04-23 11:38 | 25.53938 | 46.96517 | 19007 ft | 432 kts | 49° |
| 2026-04-23 11:39 | 25.55803 | 46.99134 | 19006 ft | 433 kts | 49° |
| 2026-04-23 11:39 | 25.57670 | 47.01756 | 19007 ft | 433 kts | 49° |
| 2026-04-23 11:39 | 25.59533 | 47.04373 | 19007 ft | 433 kts | 49° |
| 2026-04-23 11:39 | 25.61401 | 47.06999 | 19007 ft | 433 kts | 49° |
| 2026-04-23 11:40 | 25.63274 | 47.09632 | 19128 ft | 436 kts | 49° |
| 2026-04-23 11:40 | 25.65157 | 47.12280 | 19679 ft | 438 kts | 49° |
| 2026-04-23 11:40 | 25.67045 | 47.14939 | 20350 ft | 439 kts | 49° |
| 2026-04-23 11:40 | 25.68942 | 47.17610 | 20807 ft | 441 kts | 49° |
| 2026-04-23 11:41 | 25.70842 | 47.20288 | 21013 ft | 442 kts | 49° |
| 2026-04-23 11:41 | 25.72727 | 47.22945 | 21017 ft | 444 kts | 49° |
| 2026-04-23 11:41 | 25.74635 | 47.25638 | 21014 ft | 445 kts | 49° |
| 2026-04-23 11:41 | 25.76645 | 47.28245 | 21010 ft | 442 kts | 40° |
| 2026-04-23 11:42 | 25.78942 | 47.30489 | 21010 ft | 438 kts | 34° |
| 2026-04-23 11:42 | 25.81361 | 47.32538 | 21009 ft | 437 kts | 31° |
| 2026-04-23 11:42 | 25.83843 | 47.34489 | 21012 ft | 436 kts | 30° |
| 2026-04-23 11:42 | 25.86338 | 47.36395 | 21018 ft | 436 kts | 30° |
| 2026-04-23 11:43 | 25.88843 | 47.38306 | 21019 ft | 436 kts | 30° |
| 2026-04-23 11:43 | 25.91308 | 47.40204 | 21039 ft | 436 kts | 30° |
| 2026-04-23 11:43 | 25.93795 | 47.42142 | 21014 ft | 437 kts | 31° |
| 2026-04-23 11:43 | 25.96279 | 47.44096 | 21015 ft | 438 kts | 31° |
| 2026-04-23 11:44 | 25.98768 | 47.46066 | 21018 ft | 438 kts | 31° |
| 2026-04-23 11:44 | 26.01258 | 47.48045 | 21018 ft | 438 kts | 31° |
| 2026-04-23 11:44 | 26.03734 | 47.50018 | 21017 ft | 438 kts | 31° |
| 2026-04-23 11:44 | 26.06217 | 47.51996 | 21018 ft | 438 kts | 31° |
| 2026-04-23 11:45 | 26.08718 | 47.53989 | 21018 ft | 438 kts | 31° |
| 2026-04-23 11:45 | 26.11173 | 47.55945 | 21018 ft | 438 kts | 31° |
| 2026-04-23 11:45 | 26.13664 | 47.57931 | 21018 ft | 438 kts | 31° |
| 2026-04-23 11:45 | 26.16139 | 47.59904 | 21016 ft | 438 kts | 31° |
| 2026-04-23 11:46 | 26.18616 | 47.61879 | 21018 ft | 439 kts | 31° |
| 2026-04-23 11:46 | 26.21090 | 47.63854 | 21015 ft | 439 kts | 31° |
| 2026-04-23 11:46 | 26.23562 | 47.65832 | 21028 ft | 439 kts | 32° |
| 2026-04-23 11:46 | 26.25859 | 47.68101 | 21020 ft | 445 kts | 44° |
| 2026-04-23 11:47 | 26.27700 | 47.70889 | 21017 ft | 449 kts | 59° |
| 2026-04-23 11:47 | 26.28921 | 47.74098 | 21020 ft | 451 kts | 70° |
| 2026-04-23 11:47 | 26.29831 | 47.77449 | 21017 ft | 451 kts | 75° |
| 2026-04-23 11:47 | 26.30564 | 47.80851 | 21022 ft | 452 kts | 78° |
| 2026-04-23 11:48 | 26.30791 | 47.82010 | 21021 ft | 452 kts | 78° |
| 2026-04-23 11:48 | 26.30947 | 47.82824 | 21019 ft | 452 kts | 78° |
| 2026-04-23 11:48 | 26.31354 | 47.84971 | 21019 ft | 452 kts | 78° |
| 2026-04-23 11:48 | 26.31991 | 47.88405 | 21017 ft | 452 kts | 78° |
| 2026-04-23 11:49 | 26.32633 | 47.91836 | 21008 ft | 452 kts | 78° |
| 2026-04-23 11:49 | 26.33291 | 47.95262 | 21015 ft | 452 kts | 78° |
| 2026-04-23 11:49 | 26.33966 | 47.98690 | 21008 ft | 452 kts | 77° |
| 2026-04-23 11:49 | 26.34655 | 48.02130 | 21011 ft | 452 kts | 77° |
| 2026-04-23 11:50 | 26.35339 | 48.05513 | 21012 ft | 453 kts | 77° |
| 2026-04-23 11:50 | 26.36032 | 48.08930 | 21012 ft | 453 kts | 77° |
| 2026-04-23 11:50 | 26.36728 | 48.12356 | 21012 ft | 453 kts | 77° |
| 2026-04-23 11:50 | 26.37424 | 48.15790 | 21007 ft | 453 kts | 77° |
| 2026-04-23 11:51 | 26.38116 | 48.19211 | 21009 ft | 453 kts | 77° |
| 2026-04-23 11:51 | 26.38808 | 48.22636 | 21001 ft | 452 kts | 77° |
| 2026-04-23 11:51 | 26.39498 | 48.26060 | 21003 ft | 453 kts | 77° |
| 2026-04-23 11:51 | 26.40187 | 48.29487 | 21006 ft | 453 kts | 77° |
| 2026-04-23 11:52 | 26.40875 | 48.32913 | 21005 ft | 453 kts | 77° |
| 2026-04-23 11:52 | 26.41562 | 48.36338 | 20998 ft | 452 kts | 77° |
| 2026-04-23 11:52 | 26.42249 | 48.39767 | 20995 ft | 452 kts | 77° |
| 2026-04-23 11:52 | 26.42702 | 48.42031 | 21005 ft | 452 kts | 77° |
| 2026-04-23 11:53 | 26.43388 | 48.45460 | 20845 ft | 451 kts | 77° |
| 2026-04-23 11:53 | 26.44289 | 48.49972 | 20528 ft | 448 kts | 77° |
| 2026-04-23 11:53 | 26.44964 | 48.53364 | 20282 ft | 447 kts | 77° |
| 2026-04-23 11:53 | 26.45636 | 48.56742 | 20041 ft | 445 kts | 77° |
| 2026-04-23 11:54 | 26.46087 | 48.59016 | 19879 ft | 444 kts | 77° |
| 2026-04-23 11:54 | 26.46756 | 48.62384 | 19646 ft | 443 kts | 77° |
| 2026-04-23 11:54 | 26.47241 | 48.65759 | 19396 ft | 440 kts | 89° |
| 2026-04-23 11:54 | 26.47138 | 48.69125 | 19171 ft | 437 kts | 97° |
| 2026-04-23 11:55 | 26.46826 | 48.72490 | 18943 ft | 435 kts | 99° |
| 2026-04-23 11:55 | 26.46463 | 48.75831 | 18709 ft | 433 kts | 99° |
| 2026-04-23 11:55 | 26.46087 | 48.79157 | 18484 ft | 431 kts | 99° |
| 2026-04-23 11:55 | 26.45712 | 48.82433 | 18250 ft | 419 kts | 100° |
| 2026-04-23 11:56 | 26.45345 | 48.85620 | 18013 ft | 408 kts | 100° |
| 2026-04-23 11:56 | 26.44984 | 48.88740 | 17537 ft | 405 kts | 100° |
| 2026-04-23 11:56 | 26.44623 | 48.91842 | 17064 ft | 401 kts | 100° |
| 2026-04-23 11:56 | 26.44264 | 48.94919 | 16602 ft | 398 kts | 100° |
| 2026-04-23 11:57 | 26.43907 | 48.97967 | 16126 ft | 395 kts | 100° |
| 2026-04-23 11:57 | 26.43557 | 49.00955 | 15670 ft | 392 kts | 100° |
| 2026-04-23 11:57 | 26.43205 | 49.03963 | 15199 ft | 390 kts | 101° |
| 2026-04-23 11:57 | 26.42853 | 49.06954 | 14745 ft | 387 kts | 101° |
| 2026-04-23 11:58 | 26.42505 | 49.09916 | 14379 ft | 381 kts | 101° |
| 2026-04-23 11:58 | 26.42161 | 49.12834 | 14040 ft | 376 kts | 101° |
| 2026-04-23 11:58 | 26.41821 | 49.15718 | 13633 ft | 373 kts | 101° |
| 2026-04-23 11:58 | 26.41482 | 49.18578 | 13168 ft | 370 kts | 101° |
| 2026-04-23 11:59 | 26.41146 | 49.21411 | 12706 ft | 367 kts | 101° |
| 2026-04-23 11:59 | 26.40813 | 49.24219 | 12262 ft | 363 kts | 101° |
| 2026-04-23 11:59 | 26.40486 | 49.26965 | 11850 ft | 360 kts | 101° |
| 2026-04-23 11:59 | 26.40159 | 49.29730 | 11461 ft | 358 kts | 101° |
| 2026-04-23 12:00 | 26.39836 | 49.32471 | 11123 ft | 354 kts | 101° |
| 2026-04-23 12:00 | 26.39517 | 49.35183 | 10710 ft | 352 kts | 100° |
| 2026-04-23 12:00 | 26.39194 | 49.37898 | 10271 ft | 353 kts | 101° |
| 2026-04-23 12:00 | 26.38870 | 49.40593 | 9912 ft | 348 kts | 101° |
| 2026-04-23 12:01 | 26.38549 | 49.43255 | 9508 ft | 343 kts | 101° |
| 2026-04-23 12:01 | 26.38236 | 49.45854 | 9227 ft | 334 kts | 101° |
| 2026-04-23 12:01 | 26.37927 | 49.48399 | 8874 ft | 329 kts | 101° |
| 2026-04-23 12:01 | 26.37624 | 49.50889 | 8503 ft | 325 kts | 101° |
| 2026-04-23 12:02 | 26.37319 | 49.53385 | 8122 ft | 321 kts | 101° |
| 2026-04-23 12:02 | 26.36870 | 49.55788 | 7741 ft | 313 kts | 115° |
| 2026-04-23 12:02 | 26.35818 | 49.57834 | 7309 ft | 305 kts | 130° |
| 2026-04-23 12:02 | 26.34547 | 49.59710 | 6917 ft | 301 kts | 132° |
| 2026-04-23 12:03 | 26.33257 | 49.61541 | 6538 ft | 298 kts | 132° |
| 2026-04-23 12:03 | 26.31985 | 49.63354 | 6229 ft | 296 kts | 132° |
| 2026-04-23 12:03 | 26.30711 | 49.65178 | 5874 ft | 298 kts | 131° |
| 2026-04-23 12:03 | 26.29433 | 49.67008 | 5514 ft | 299 kts | 131° |
| 2026-04-23 12:04 | 26.28165 | 49.68830 | 5212 ft | 296 kts | 131° |
| 2026-04-23 12:04 | 26.26913 | 49.70636 | 4891 ft | 293 kts | 132° |
| 2026-04-23 12:04 | 26.25679 | 49.72423 | 4606 ft | 288 kts | 130° |
| 2026-04-23 12:04 | 26.24820 | 49.74406 | 4406 ft | 292 kts | 102° |
| 2026-04-23 12:05 | 26.24947 | 49.76618 | 4484 ft | 283 kts | 79° |
| 2026-04-23 12:05 | 26.25474 | 49.78682 | 4487 ft | 272 kts | 75° |
| 2026-04-23 12:05 | 26.26015 | 49.80643 | 4485 ft | 259 kts | 75° |
| 2026-04-23 12:05 | 26.26623 | 49.82477 | 4479 ft | 246 kts | 62° |
| 2026-04-23 12:06 | 26.27790 | 49.83809 | 4381 ft | 241 kts | 27° |
| 2026-04-23 12:06 | 26.29399 | 49.84159 | 4038 ft | 238 kts | 351° |
| 2026-04-23 12:06 | 26.32589 | 49.83273 | 3196 ft | 227 kts | 339° |
| 2026-04-23 12:07 | 26.34045 | 49.82790 | 2973 ft | 214 kts | 341° |
| 2026-04-23 12:07 | 26.35409 | 49.82318 | 2913 ft | 195 kts | 343° |
| 2026-04-23 12:07 | 26.36652 | 49.81941 | 2907 ft | 177 kts | 343° |
| 2026-04-23 12:07 | 26.37776 | 49.81592 | 2912 ft | 160 kts | 341° |
| 2026-04-23 12:08 | 26.38835 | 49.81257 | 2919 ft | 157 kts | 341° |
| 2026-04-23 12:08 | 26.39867 | 49.80939 | 2818 ft | 150 kts | 342° |
| 2026-04-23 12:08 | 26.40865 | 49.80628 | 2422 ft | 148 kts | 344° |
| 2026-04-23 12:08 | 26.41850 | 49.80319 | 2004 ft | 147 kts | 348° |
| 2026-04-23 12:09 | 26.42882 | 49.80002 | 1224 ft | 162 kts | 347° |
| 2026-04-23 12:09 | 26.43988 | 49.79640 | 695 ft | 165 kts | 344° |
| 2026-04-23 12:09 | 26.45068 | 49.79281 | 239 ft | 161 kts | 351° |
| 2026-04-23 12:09 | 26.46101 | 49.78989 | 95 ft | 136 kts | 345° |
| 2026-04-23 12:10 | 26.46752 | 49.78789 | 92 ft | 73 kts | 345° |
| 2026-04-23 12:10 | 26.47031 | 49.78717 | 94 ft | 28 kts | 356° |
| 2026-04-23 12:10 | 26.47213 | 49.78741 | 93 ft | 26 kts | 13° |
| 2026-04-23 12:10 | 26.47378 | 49.78788 | 94 ft | 19 kts | 14° |
| 2026-04-23 12:11 | 26.47458 | 49.78861 | 93 ft | 15 kts | 68° |
| 2026-04-23 12:11 | 26.47488 | 49.78971 | 93 ft | 15 kts | 74° |
| 2026-04-23 12:11 | 26.47519 | 49.79082 | 93 ft | 15 kts | 75° |
| 2026-04-23 12:11 | 26.47542 | 49.79158 | 91 ft | 3 kts | 45° |
| 2026-04-23 12:12 | 26.47562 | 49.79164 | 91 ft | 2 kts | 358° |
| 2026-04-23 12:12 | 26.47567 | 49.79159 | 91 ft | 1 kts | 324° |
| 2026-04-23 12:12 | 26.47568 | 49.79156 | 93 ft | 0 kts | 310° |
| 2026-04-23 12:12 | 26.47568 | 49.79154 | 93 ft | 0 kts | 301° |
| 2026-04-23 12:13 | 26.47568 | 49.79152 | 93 ft | 0 kts | 293° |
| 2026-04-23 12:13 | 26.47574 | 49.79118 | 93 ft | 2 kts | 265° |
| 2026-04-23 12:14 | 26.47573 | 49.79114 | 93 ft | 2 kts | 256° |
| 2026-04-23 12:14 | 26.47568 | 49.79101 | 91 ft | 2 kts | 243° |
| 2026-04-23 12:14 | 26.47567 | 49.79100 | 91 ft | 0 kts | 244° |
| 2026-04-23 12:15 | 26.47548 | 49.79110 | 93 ft | 1 kts | 245° |
| 2026-04-23 12:15 | 26.47542 | 49.79097 | 90 ft | 2 kts | 242° |
| 2026-04-23 12:15 | 26.47517 | 49.79072 | 93 ft | 0 kts | 244° |
| 2026-04-23 12:15 | 26.47508 | 49.79047 | 92 ft | 7 kts | 250° |
| 2026-04-23 12:16 | 26.47489 | 49.78973 | 93 ft | 13 kts | 257° |
| 2026-04-23 12:16 | 26.47527 | 49.78876 | 91 ft | 16 kts | 328° |
| 2026-04-23 12:16 | 26.47642 | 49.78841 | 92 ft | 18 kts | 357° |
| 2026-04-23 12:16 | 26.47736 | 49.78925 | 94 ft | 19 kts | 47° |
| 2026-04-23 12:17 | 26.47808 | 49.78973 | 93 ft | 6 kts | 51° |
| 2026-04-23 12:17 | 26.47823 | 49.79005 | 89 ft | 1 kts | 67° |
| 2026-04-23 12:17 | 26.47830 | 49.79026 | 93 ft | 5 kts | 72° |
| 2026-04-23 12:17 | 26.47833 | 49.79037 | 90 ft | 0 kts | 74° |